🇳🇱 VeloStatistics

👤 Anatoliy Pakhtusov

NationaliteitUKR
Geboortedatum1985-04-17
Overlijdensdatum -
Lengte / Gewicht?? cm / ?? kg
Profzeges0
Profzeges 20260
Wedstrijddagen313

🚴 Ploegenhistorie

Geen ploegen gevonden.

📊 Prestatie Matrix

Jaar
GdI
TdF
VaE
MSR
RvV
PR
LBL
LOM
WK
PN
TA
VPV
VaC
TdR
CdD
TdS
GW
AGR
FW
PT
2011 - - - - - - - - 147 - - - - - - - - - - -

🏆 Resultaten (152)

Datum Pos Wedstrijd UCI Ploeg
2013-05-26 5 2013 | Race Horizon Park II, UKR (26.5) 1.2 -
2013-05-24 7 2013 | Race Horizon Park I, UKR (24.5) 1.2 -
2013-05-05 7 2013 | Tour de Azerbaidjan, AZE (5.5) 2.2 -
2013-05-02 10 2013 | Tour de Azerbaidjan, AZE | Rit 2 (2.5) 2.2 -
2013-04-21 15 2013 | G.P. Adygeya, RUS (21.4) 2.2 -
2013-04-14 1 2013 | G.P. Donetsk, UKR (14.4) 1.2 -
2013-04-07 6 2013 | G.P. of Sochi, RUS (7.4) 2.2 -
2013-04-06 9 2013 | G.P. of Sochi, RUS | Rit 4 (6.4) 2.2 -
2013-04-05 9 2013 | G.P. of Sochi, RUS | Rit 3 (5.4) 2.2 -
2013-04-03 6 2013 | G.P. of Sochi, RUS | Rit 1 (3.4) 2.2 -
2012-11-08 61 2012 | Tour of Taihu, CHN (8.11) 2.1 -
2012-11-04 17 2012 | Tour of Taihu, CHN | Rit 4 (4.11) 2.1 -
2012-09-23 46 2012 | Tour of China II, CHN (23.9) 2.1 -
2012-09-13 25 2012 | Tour of China, CHN (13.9) 2.1 -
2012-09-09 10 2012 | Tour of China, CHN | Rit 3 (9.9) 2.1 -
2012-08-22 9 2012 | Baltic Chain Tour | Rit 2 (22.8) 2.2 -
2012-08-18 2 2012 | Puchar Ministra Obrony Narodowej, POL (18.8) 1.2 -
2012-08-12 2 2012 | Tour of Szekerland, ROU (12.8) 2.2 -
2012-08-11 9 2012 | Tour of Szekerland, ROU | Rit 3 (11.8) 2.2 -
2012-08-10 1 2012 | Tour of Szekerland, ROU | Rit 2 (10.8) 2.2 -
2012-07-08 15 2012 | Course de Solidarnosc et des Champions Olympiques, POL (8.7) 2.1 -
2012-07-07 6 2012 | Course de Solidarnosc et des Champions Olympiques, POL | Rit 5 (7.7) 2.1 -
2012-07-06 12 2012 | Course de Solidarnosc et des Champions Olympiques, POL | Rit 4 (6.7) 2.1 -
2012-07-05 19 2012 | Course de Solidarnosc et des Champions Olympiques, POL | Rit 3 (5.7) 2.1 -
2012-07-01 13 2012 | Czech Tour, CZE (1.7) 2.2 -
2012-06-30 4 2012 | Czech Tour, CZE | Rit 3 (30.6) 2.2 -
2012-05-27 9 2012 | Race Horizon Park I, UKR (27.5) 1.2 -
2012-05-19 48 2012 | Jurmala G.P., LAT (19.5) 1.2 -
2012-05-16 12 2012 | Azerbaijan Tour, IRI (16.5) 2.2 -
2012-05-14 8 2012 | Azerbaijan Tour, IRI | Rit 4 (14.5) 2.2 -
2012-05-03 19 2012 | G.P. Moscow, RUS (3.5) 1.2 -
2012-05-02 4 2012 | Memorial Oleg Dyachenko, RUS (2.5) 1.2 -
2012-04-26 10 2012 | Tour de Korea, KOR | Rit 5 (26.4) 2.2 -
2012-04-08 3 2012 | G.P. of Sochi, RUS (8.4) 2.2 -
2012-04-08 7 2012 | G.P. of Sochi, RUS | Rit 5 (8.4) 2.2 -
2012-04-06 7 2012 | G.P. of Sochi, RUS | Rit 3 (6.4) 2.2 -
2012-04-04 1 2012 | G.P. of Sochi, RUS | Rit 1 (4.4) 2.2 -
2011-09-25 147 2011 | Wereldkampioenschap (25.9) WC -
2011-08-13 8 2011 | Tour of Szekerland, ROU (13.8) 2.2 -
2011-08-13 3 2011 | Tour of Szekerland, ROU | Rit 4 (13.8) 2.2 -
2011-07-10 2 2011 | Sibiu Cycling Tour, ROU | Rit 5 (10.7) 2.2 -
2011-07-09 9 2011 | Sibiu Cycling Tour, ROU | Rit 4 (9.7) 2.2 -
2011-07-02 21 2011 | Course de Solidarnosc et des Champions Olympiques, POL (2.7) 2.1 -
2011-06-26 2 2011 | N.K. Oekraïne, UKR (26.6) NC -
2011-05-29 2 2011 | FBD Insurance RAS, IRL (29.5) 2.2 -
2011-05-27 2 2011 | FBD Insurance RAS, IRL | Rit 6 (27.5) 2.2 -
2011-05-23 4 2011 | FBD Insurance RAS, IRL | Rit 2 (23.5) 2.2 -
2011-05-09 16 2011 | Five Rings of Moscow, RUS (9.5) 2.2 -
2011-05-01 6 2011 | Memorial Oleg Dyachenko, RUS (1.5) 1.2 -
2011-04-30 4 2011 | Mayor Cup, RUS (30.4) 1.2 -